Quinsam — VY6800 — position and weather

sailwx.info

Track history (hours):
 
Tides and Currents Weather Stations Pressure Air Temp Water Temp Dewpoint Dewpoint Depression Visibility Wind Speed Wind Dir Waves Ship Positions

Quinsam

Last reported at 2016-Aug-30 06:08 UTC. Time now 2016-Aug-30 09:07 UTC.
Position N 49°10' W 123°54'.

Length 88 m; draft 1.5 m.

Type: Ship. MMSI: 316001266.

Date/timePositionNaut miles runAvg speedWind from/ knotsBaromVisibWave heightAir tempDewpointWater temp
2016-Aug-30 06:08N 49°10' W 123°54'0 0.1
2016-Aug-30 04:09N 49°10' W 123°54'0 0.0
2016-Aug-30 02:28N 49°10' W 123°54'1 1.2
2016-Aug-30 01:30N 49°11' W 123°52'0 0.3
2016-Aug-30 00:19N 49°11' W 123°53'0 0.3
2016-Aug-29 23:33N 49°11' W 123°53'1 0.9
2016-Aug-29 22:19N 49°10' W 123°55'0 0.3
2016-Aug-29 21:33N 49°10' W 123°55'1 0.8
2016-Aug-29 20:23N 49°10' W 123°54'0 0.1
2016-Aug-29 19:09N 49°10' W 123°54'1 0.8
2016-Aug-29 18:33N 49°10' W 123°54'1 1.0
2016-Aug-29 17:33N 49°10' W 123°56'1 1.2
2016-Aug-29 16:33N 49°10' W 123°54'2 1.7
2016-Aug-29 15:33N 49°11' W 123°52'0 0.0
2016-Aug-29 14:19N 49°11' W 123°52'3 3.4
2016-Aug-29 13:33N 49°10' W 123°55'3 0.4
2016-Aug-29 06:27N 49°11' W 123°52'0 0.3
2016-Aug-29 05:34N 49°11' W 123°52'0 0.2
2016-Aug-29 04:33N 49°11' W 123°52'1 0.8
2016-Aug-29 03:33N 49°10' W 123°53'1 1.1
2016-Aug-29 02:33N 49°11' W 123°52'0 0.1
2016-Aug-29 01:32N 49°11' W 123°52'0 0.0
2016-Aug-29 00:32N 49°11' W 123°52'2 1.8
2016-Aug-28 23:33N 49°10' W 123°54'1 1.2
2016-Aug-28 22:33N 49°10' W 123°56'1 1.1
2016-Aug-28 21:33N 49°10' W 123°54'2 1.7
2016-Aug-28 20:30N 49°11' W 123°52'0 0.0
2016-Aug-28 19:34N 49°11' W 123°52'2 2.0
2016-Aug-28 18:33N 49°10' W 123°55'1 0.9
2016-Aug-28 17:33N 49°10' W 123°56'1 0.8
2016-Aug-28 16:34N 49°10' W 123°55'1 1.4
2016-Aug-28 15:33N 49°11' W 123°53'2 2.2
2016-Aug-28 14:34N 49°10' W 123°56'1 0.8
2016-Aug-28 13:33N 49°10' W 123°55'2 0.3
2016-Aug-28 06:22N 49°11' W 123°52'0 0.0
2016-Aug-28 05:33N 49°11' W 123°52'0 0.2
2016-Aug-28 04:33N 49°11' W 123°52'1 0.8
2016-Aug-28 03:33N 49°11' W 123°53'1 0.7
2016-Aug-28 02:32N 49°11' W 123°52'0 0.2
2016-Aug-28 01:33N 49°11' W 123°52'0 0.0
2016-Aug-28 00:28N 49°11' W 123°52'2 2.5
2016-Aug-27 23:34N 49°10' W 123°55'1 0.6
2016-Aug-27 22:33N 49°10' W 123°56'1 1.0
2016-Aug-27 21:33N 49°10' W 123°54'2 1.8
2016-Aug-27 20:32N 49°11' W 123°52'0 0.0
2016-Aug-27 19:23N 49°11' W 123°52'2 2.8
2016-Aug-27 18:34N 49°10' W 123°55'1 0.6
2016-Aug-27 17:33N 49°10' W 123°56'1 1.1
2016-Aug-27 16:33N 49°10' W 123°54'2 1.8
2016-Aug-27 15:32N 49°11' W 123°52'0 0.0
2016-Aug-27 14:30N 49°11' W 123°52'3 3.0
2016-Aug-27 13:34N 49°10' W 123°56'3 0.4
2016-Aug-27 06:24N 49°11' W 123°52'0 0.0
2016-Aug-27 04:27N 49°11' W 123°52'1 0.7
2016-Aug-27 03:33N 49°11' W 123°53'1 0.9
2016-Aug-27 02:34N 49°10' W 123°54'1 1.2
2016-Aug-27 01:33N 49°11' W 123°52'0 0.3
2016-Aug-27 00:33N 49°11' W 123°52'1 0.7
2016-Aug-26 23:34N 49°11' W 123°53'2 2.4
2016-Aug-26 22:33N 49°10' W 123°56'0 0.2
2016-Aug-26 21:34N 49°10' W 123°56'2 2.1
2016-Aug-26 20:33N 49°11' W 123°53'1 0.6
2016-Aug-26 19:30N 49°11' W 123°52'2 2.6
2016-Aug-26 18:33N 49°10' W 123°55'0 0.5
2016-Aug-26 17:33N 49°10' W 123°56'1 0.7
2016-Aug-26 16:33N 49°10' W 123°55'2 2.1
2016-Aug-26 15:32N 49°11' W 123°52'0 0.0
2016-Aug-26 14:24N 49°11' W 123°52'2 2.9
2016-Aug-26 13:33N 49°10' W 123°55'2 0.5
2016-Aug-26 08:24N 49°11' W 123°52'0 0.0
2016-Aug-26 07:30N 49°11' W 123°52'0 0.0
2016-Aug-26 06:33N 49°11' W 123°52'0 0.0
2016-Aug-26 04:34N 49°11' W 123°52'1 1.5
2016-Aug-26 03:34N 49°10' W 123°54'0 0.1
2016-Aug-26 02:33N 49°10' W 123°54'1 0.8
2016-Aug-26 01:33N 49°11' W 123°53'1 0.7
2016-Aug-26 00:33N 49°11' W 123°52'1 1.0
2016-Aug-25 23:33N 49°11' W 123°53'2 1.9
2016-Aug-25 22:33N 49°10' W 123°56'1 0.5
2016-Aug-25 21:33N 49°10' W 123°55'2 2.1
2016-Aug-25 20:33N 49°11' W 123°52'0 0.3
2016-Aug-25 19:32N 49°11' W 123°52'1 1.0
2016-Aug-25 18:33N 49°11' W 123°53'2 1.9
2016-Aug-25 17:33N 49°10' W 123°56'0 0.4
2016-Aug-25 16:33N 49°10' W 123°55'3 2.5
2016-Aug-25 15:32N 49°11' W 123°52'0 0.0
2016-Aug-25 14:32N 49°11' W 123°52'2 2.5
2016-Aug-25 13:33N 49°10' W 123°55'2 0.5
2016-Aug-25 08:28N 49°11' W 123°52'0 0.0
2016-Aug-25 07:31N 49°11' W 123°52'0 0.0
2016-Aug-25 06:29N 49°11' W 123°52'0 0.0
2016-Aug-25 04:33N 49°11' W 123°52'1 0.9
2016-Aug-25 03:34N 49°10' W 123°53'1 0.8
2016-Aug-25 02:34N 49°10' W 123°54'2 1.5
2016-Aug-25 01:33N 49°11' W 123°52'0 0.2
2016-Aug-25 00:32N 49°11' W 123°52'0 0.0
2016-Aug-24 23:16N 49°11' W 123°52'3 4.1
2016-Aug-24 22:33N 49°10' W 123°56'0 0.0
2016-Aug-24 21:33N 49°10' W 123°56'2 2.1
2016-Aug-24 20:33N 49°11' W 123°53'1 0.7
2016-Aug-24 19:28N 49°11' W 123°52'2 2.5
2016-Aug-24 18:34N 49°10' W 123°55'1 0.6
2016-Aug-24 17:33N 49°10' W 123°56'1 0.7
2016-Aug-24 16:33N 49°10' W 123°55'2 2.2
2016-Aug-24 15:33N 49°11' W 123°52'0 0.0
2016-Aug-24 14:29N 49°11' W 123°52'3 2.7
2016-Aug-24 13:33N 49°10' W 123°55'3 2.5
2016-Aug-24 12:33N 49°11' W 123°52'0 0.0
2016-Aug-24 11:33N 49°11' W 123°52'0 0.0
2016-Aug-24 10:27N 49°11' W 123°52'0 0.0
2016-Aug-24 09:33N 49°11' W 123°52'0 0.0
2016-Aug-24 08:33N 49°11' W 123°52'0 0.0
2016-Aug-24 07:33N 49°11' W 123°52'0 0.0
2016-Aug-24 06:33N 49°11' W 123°52'0 0.1
2016-Aug-24 04:33N 49°11' W 123°52'0 0.5
2016-Aug-24 03:33N 49°11' W 123°53'1 1.0
2016-Aug-24 02:33N 49°10' W 123°54'1 0.8
2016-Aug-24 01:33N 49°11' W 123°53'1 0.9
2016-Aug-24 00:33N 49°11' W 123°52'0 0.0
2016-Aug-23 23:34N 49°11' W 123°52'3 2.8
2016-Aug-23 22:33N 49°10' W 123°56'0 0.1
2016-Aug-23 21:24N 49°10' W 123°56'2 2.9
2016-Aug-23 20:34N 49°11' W 123°52'0 0.4
2016-Aug-23 19:23N 49°11' W 123°52'1 1.4
2016-Aug-23 18:33N 49°10' W 123°53'2 1.7
2016-Aug-23 17:33N 49°10' W 123°56'1 0.7
2016-Aug-23 16:33N 49°10' W 123°55'2 2.1
2016-Aug-23 15:31N 49°11' W 123°52'0 0.0
2016-Aug-23 14:21N 49°11' W 123°52'3 3.7
2016-Aug-23 13:33N 49°10' W 123°56'3 1.2
2016-Aug-23 11:09N 49°11' W 123°52'0 0.0
2016-Aug-23 07:21N 49°11' W 123°52'0 0.0
2016-Aug-23 06:33N 49°11' W 123°52'1 0.5
2016-Aug-23 05:32N 49°11' W 123°52'0 0.0
2016-Aug-23 04:33N 49°11' W 123°52'0 0.2
2016-Aug-23 03:33N 49°11' W 123°53'2 1.9
2016-Aug-23 02:33N 49°10' W 123°55'0 0.4
2016-Aug-23 01:33N 49°10' W 123°55'1 1.3
2016-Aug-23 00:33N 49°11' W 123°53'1 0.9
2016-Aug-22 23:32N 49°11' W 123°52'1 0.9
2016-Aug-22 22:33N 49°11' W 123°53'2 1.8
2016-Aug-22 21:33N 49°10' W 123°55'0 0.2
2016-Aug-22 20:33N 49°10' W 123°56'1 1.5
2016-Aug-22 19:34N 49°10' W 123°54'1 1.4
2016-Aug-22 18:33N 49°11' W 123°52'0 0.0
2016-Aug-22 17:31N 49°11' W 123°52'2 1.9
2016-Aug-22 16:33N 49°10' W 123°54'1 1.1
2016-Aug-22 15:34N 49°10' W 123°56'0 0.0
2016-Aug-22 14:33N 49°10' W 123°56'3 2.9
2016-Aug-22 13:33N 49°11' W 123°52'0 0.0
2016-Aug-22 12:30N 49°11' W 123°52'0 0.0
2016-Aug-22 11:18N 49°11' W 123°52'0 0.0
2016-Aug-22 10:30N 49°11' W 123°52'0 0.0
2016-Aug-22 09:27N 49°11' W 123°52'0 0.0
2016-Aug-22 06:24N 49°11' W 123°52'0 0.1
2016-Aug-22 05:33N 49°11' W 123°52'0 0.2
2016-Aug-22 04:33N 49°11' W 123°52'1 0.6
2016-Aug-22 03:33N 49°10' W 123°53'1 1.4
2016-Aug-22 02:33N 49°10' W 123°55'2 1.9
2016-Aug-22 01:34N 49°11' W 123°52'0 0.4
2016-Aug-22 00:33N 49°11' W 123°52'1 1.5
2016-Aug-21 23:33N 49°10' W 123°54'1 1.4
2016-Aug-21 22:33N 49°10' W 123°56'1 0.6
2016-Aug-21 21:34N 49°10' W 123°55'2 1.9
2016-Aug-21 20:34N 49°11' W 123°52'0 0.4
2016-Aug-21 19:28N 49°11' W 123°52'2 2.2
2016-Aug-21 18:34N 49°10' W 123°55'1 0.9
2016-Aug-21 17:33N 49°10' W 123°56'1 1.0
2016-Aug-21 16:33N 49°10' W 123°54'2 1.7
2016-Aug-21 15:33N 49°11' W 123°52'3 2.7
2016-Aug-21 14:34N 49°10' W 123°56'0 0.3
2016-Aug-21 13:33N 49°10' W 123°55'3 2.0
2016-Aug-21 12:14N 49°11' W 123°52'0 0.0
2016-Aug-21 11:19N 49°11' W 123°52'0 0.0
2016-Aug-21 10:28N 49°11' W 123°52'0 0.0
2016-Aug-21 09:19N 49°11' W 123°52'0 0.0
2016-Aug-21 08:29N 49°11' W 123°52'0 0.0
2016-Aug-21 07:28N 49°11' W 123°52'0 0.0
2016-Aug-21 06:33N 49°11' W 123°52'0 0.0
2016-Aug-21 05:33N 49°11' W 123°52'0 0.0
2016-Aug-21 04:33N 49°11' W 123°52'1 0.6
2016-Aug-21 03:33N 49°11' W 123°53'1 0.5
2016-Aug-21 02:33N 49°11' W 123°52'0 0.1
2016-Aug-21 01:31N 49°11' W 123°52'0 0.0
2016-Aug-21 00:32N 49°11' W 123°52'2 2.4
2016-Aug-20 23:33N 49°10' W 123°55'1 0.5
2016-Aug-20 22:33N 49°10' W 123°56'1 1.4
2016-Aug-20 21:33N 49°10' W 123°54'1 1.5
2016-Aug-20 20:33N 49°11' W 123°52'0 0.0
2016-Aug-20 19:33N 49°11' W 123°52'2 2.3
2016-Aug-20 18:33N 49°10' W 123°55'1 0.6
2016-Aug-20 17:33N 49°10' W 123°56'1 0.7
2016-Aug-20 16:33N 49°10' W 123°55'2 2.1
2016-Aug-20 15:33N 49°11' W 123°52'0 0.1
2016-Aug-20 14:24N 49°11' W 123°52'3 3.4
2016-Aug-20 13:33N 49°10' W 123°56'3 1.2
2016-Aug-20 11:12N 49°11' W 123°52'0 0.0
2016-Aug-20 10:27N 49°11' W 123°52'0 0.0
2016-Aug-20 09:24N 49°11' W 123°52'0 0.0
2016-Aug-20 08:30N 49°11' W 123°52'0 0.0
2016-Aug-20 07:24N 49°11' W 123°52'0 0.0
2016-Aug-20 06:22N 49°11' W 123°52'  
Track history (hours):
 
Tides and Currents Weather Stations Pressure Air Temp Water Temp Dewpoint Dewpoint Depression Visibility Wind Speed Wind Dir Waves Ship Positions

Quinsam

Last reported at 2016-Aug-30 06:08 UTC. Time now 2016-Aug-30 09:07 UTC.
Position N 49°10' W 123°54'.

Length 88 m; draft 1.5 m.

Type: Ship. MMSI: 316001266.

Date/timePositionNaut miles runAvg speedWind from/ knotsBaromVisibWave heightAir tempDewpointWater temp
2016-Aug-30 06:08N 49°10' W 123°54'0 0.1
2016-Aug-30 04:09N 49°10' W 123°54'0 0.0
2016-Aug-30 02:28N 49°10' W 123°54'1 1.2
2016-Aug-30 01:30N 49°11' W 123°52'0 0.3
2016-Aug-30 00:19N 49°11' W 123°53'0 0.3
2016-Aug-29 23:33N 49°11' W 123°53'1 0.9
2016-Aug-29 22:19N 49°10' W 123°55'0 0.3
2016-Aug-29 21:33N 49°10' W 123°55'1 0.8
2016-Aug-29 20:23N 49°10' W 123°54'0 0.1
2016-Aug-29 19:09N 49°10' W 123°54'1 0.8
2016-Aug-29 18:33N 49°10' W 123°54'1 1.0
2016-Aug-29 17:33N 49°10' W 123°56'1 1.2
2016-Aug-29 16:33N 49°10' W 123°54'2 1.7
2016-Aug-29 15:33N 49°11' W 123°52'0 0.0
2016-Aug-29 14:19N 49°11' W 123°52'3 3.4
2016-Aug-29 13:33N 49°10' W 123°55'3 0.4
2016-Aug-29 06:27N 49°11' W 123°52'0 0.3
2016-Aug-29 05:34N 49°11' W 123°52'0 0.2
2016-Aug-29 04:33N 49°11' W 123°52'1 0.8
2016-Aug-29 03:33N 49°10' W 123°53'1 1.1
2016-Aug-29 02:33N 49°11' W 123°52'0 0.1
2016-Aug-29 01:32N 49°11' W 123°52'0 0.0
2016-Aug-29 00:32N 49°11' W 123°52'2 1.8
2016-Aug-28 23:33N 49°10' W 123°54'1 1.2
2016-Aug-28 22:33N 49°10' W 123°56'1 1.1
2016-Aug-28 21:33N 49°10' W 123°54'2 1.7
2016-Aug-28 20:30N 49°11' W 123°52'0 0.0
2016-Aug-28 19:34N 49°11' W 123°52'2 2.0
2016-Aug-28 18:33N 49°10' W 123°55'1 0.9
2016-Aug-28 17:33N 49°10' W 123°56'1 0.8
2016-Aug-28 16:34N 49°10' W 123°55'1 1.4
2016-Aug-28 15:33N 49°11' W 123°53'2 2.2
2016-Aug-28 14:34N 49°10' W 123°56'1 0.8
2016-Aug-28 13:33N 49°10' W 123°55'2 0.3
2016-Aug-28 06:22N 49°11' W 123°52'0 0.0
2016-Aug-28 05:33N 49°11' W 123°52'0 0.2
2016-Aug-28 04:33N 49°11' W 123°52'1 0.8
2016-Aug-28 03:33N 49°11' W 123°53'1 0.7
2016-Aug-28 02:32N 49°11' W 123°52'0 0.2
2016-Aug-28 01:33N 49°11' W 123°52'0 0.0
2016-Aug-28 00:28N 49°11' W 123°52'2 2.5
2016-Aug-27 23:34N 49°10' W 123°55'1 0.6
2016-Aug-27 22:33N 49°10' W 123°56'1 1.0
2016-Aug-27 21:33N 49°10' W 123°54'2 1.8
2016-Aug-27 20:32N 49°11' W 123°52'0 0.0
2016-Aug-27 19:23N 49°11' W 123°52'2 2.8
2016-Aug-27 18:34N 49°10' W 123°55'1 0.6
2016-Aug-27 17:33N 49°10' W 123°56'1 1.1
2016-Aug-27 16:33N 49°10' W 123°54'2 1.8
2016-Aug-27 15:32N 49°11' W 123°52'0 0.0
2016-Aug-27 14:30N 49°11' W 123°52'3 3.0
2016-Aug-27 13:34N 49°10' W 123°56'3 0.4
2016-Aug-27 06:24N 49°11' W 123°52'0 0.0
2016-Aug-27 04:27N 49°11' W 123°52'1 0.7
2016-Aug-27 03:33N 49°11' W 123°53'1 0.9
2016-Aug-27 02:34N 49°10' W 123°54'1 1.2
2016-Aug-27 01:33N 49°11' W 123°52'0 0.3
2016-Aug-27 00:33N 49°11' W 123°52'1 0.7
2016-Aug-26 23:34N 49°11' W 123°53'2 2.4
2016-Aug-26 22:33N 49°10' W 123°56'0 0.2
2016-Aug-26 21:34N 49°10' W 123°56'2 2.1
2016-Aug-26 20:33N 49°11' W 123°53'1 0.6
2016-Aug-26 19:30N 49°11' W 123°52'2 2.6
2016-Aug-26 18:33N 49°10' W 123°55'0 0.5
2016-Aug-26 17:33N 49°10' W 123°56'1 0.7
2016-Aug-26 16:33N 49°10' W 123°55'2 2.1
2016-Aug-26 15:32N 49°11' W 123°52'0 0.0
2016-Aug-26 14:24N 49°11' W 123°52'2 2.9
2016-Aug-26 13:33N 49°10' W 123°55'2 0.5
2016-Aug-26 08:24N 49°11' W 123°52'0 0.0
2016-Aug-26 07:30N 49°11' W 123°52'0 0.0
2016-Aug-26 06:33N 49°11' W 123°52'0 0.0
2016-Aug-26 04:34N 49°11' W 123°52'1 1.5
2016-Aug-26 03:34N 49°10' W 123°54'0 0.1
2016-Aug-26 02:33N 49°10' W 123°54'1 0.8
2016-Aug-26 01:33N 49°11' W 123°53'1 0.7
2016-Aug-26 00:33N 49°11' W 123°52'1 1.0
2016-Aug-25 23:33N 49°11' W 123°53'2 1.9
2016-Aug-25 22:33N 49°10' W 123°56'1 0.5
2016-Aug-25 21:33N 49°10' W 123°55'2 2.1
2016-Aug-25 20:33N 49°11' W 123°52'0 0.3
2016-Aug-25 19:32N 49°11' W 123°52'1 1.0
2016-Aug-25 18:33N 49°11' W 123°53'2 1.9
2016-Aug-25 17:33N 49°10' W 123°56'0 0.4
2016-Aug-25 16:33N 49°10' W 123°55'3 2.5
2016-Aug-25 15:32N 49°11' W 123°52'0 0.0
2016-Aug-25 14:32N 49°11' W 123°52'2 2.5
2016-Aug-25 13:33N 49°10' W 123°55'2 0.5
2016-Aug-25 08:28N 49°11' W 123°52'0 0.0
2016-Aug-25 07:31N 49°11' W 123°52'0 0.0
2016-Aug-25 06:29N 49°11' W 123°52'0 0.0
2016-Aug-25 04:33N 49°11' W 123°52'1 0.9
2016-Aug-25 03:34N 49°10' W 123°53'1 0.8
2016-Aug-25 02:34N 49°10' W 123°54'2 1.5
2016-Aug-25 01:33N 49°11' W 123°52'0 0.2
2016-Aug-25 00:32N 49°11' W 123°52'0 0.0
2016-Aug-24 23:16N 49°11' W 123°52'3 4.1
2016-Aug-24 22:33N 49°10' W 123°56'0 0.0
2016-Aug-24 21:33N 49°10' W 123°56'2 2.1
2016-Aug-24 20:33N 49°11' W 123°53'1 0.7
2016-Aug-24 19:28N 49°11' W 123°52'2 2.5
2016-Aug-24 18:34N 49°10' W 123°55'1 0.6
2016-Aug-24 17:33N 49°10' W 123°56'1 0.7
2016-Aug-24 16:33N 49°10' W 123°55'2 2.2
2016-Aug-24 15:33N 49°11' W 123°52'0 0.0
2016-Aug-24 14:29N 49°11' W 123°52'3 2.7
2016-Aug-24 13:33N 49°10' W 123°55'3 2.5
2016-Aug-24 12:33N 49°11' W 123°52'0 0.0
2016-Aug-24 11:33N 49°11' W 123°52'0 0.0
2016-Aug-24 10:27N 49°11' W 123°52'0 0.0
2016-Aug-24 09:33N 49°11' W 123°52'0 0.0
2016-Aug-24 08:33N 49°11' W 123°52'0 0.0
2016-Aug-24 07:33N 49°11' W 123°52'0 0.0
2016-Aug-24 06:33N 49°11' W 123°52'0 0.1
2016-Aug-24 04:33N 49°11' W 123°52'0 0.5
2016-Aug-24 03:33N 49°11' W 123°53'1 1.0
2016-Aug-24 02:33N 49°10' W 123°54'1 0.8
2016-Aug-24 01:33N 49°11' W 123°53'1 0.9
2016-Aug-24 00:33N 49°11' W 123°52'0 0.0
2016-Aug-23 23:34N 49°11' W 123°52'3 2.8
2016-Aug-23 22:33N 49°10' W 123°56'0 0.1
2016-Aug-23 21:24N 49°10' W 123°56'2 2.9
2016-Aug-23 20:34N 49°11' W 123°52'0 0.4
2016-Aug-23 19:23N 49°11' W 123°52'1 1.4
2016-Aug-23 18:33N 49°10' W 123°53'2 1.7
2016-Aug-23 17:33N 49°10' W 123°56'1 0.7
2016-Aug-23 16:33N 49°10' W 123°55'2 2.1
2016-Aug-23 15:31N 49°11' W 123°52'0 0.0
2016-Aug-23 14:21N 49°11' W 123°52'3 3.7
2016-Aug-23 13:33N 49°10' W 123°56'3 1.2
2016-Aug-23 11:09N 49°11' W 123°52'0 0.0
2016-Aug-23 07:21N 49°11' W 123°52'0 0.0
2016-Aug-23 06:33N 49°11' W 123°52'1 0.5
2016-Aug-23 05:32N 49°11' W 123°52'0 0.0
2016-Aug-23 04:33N 49°11' W 123°52'0 0.2
2016-Aug-23 03:33N 49°11' W 123°53'2 1.9
2016-Aug-23 02:33N 49°10' W 123°55'0 0.4
2016-Aug-23 01:33N 49°10' W 123°55'1 1.3
2016-Aug-23 00:33N 49°11' W 123°53'1 0.9
2016-Aug-22 23:32N 49°11' W 123°52'1 0.9
2016-Aug-22 22:33N 49°11' W 123°53'2 1.8
2016-Aug-22 21:33N 49°10' W 123°55'0 0.2
2016-Aug-22 20:33N 49°10' W 123°56'1 1.5
2016-Aug-22 19:34N 49°10' W 123°54'1 1.4
2016-Aug-22 18:33N 49°11' W 123°52'0 0.0
2016-Aug-22 17:31N 49°11' W 123°52'2 1.9
2016-Aug-22 16:33N 49°10' W 123°54'1 1.1
2016-Aug-22 15:34N 49°10' W 123°56'0 0.0
2016-Aug-22 14:33N 49°10' W 123°56'3 2.9
2016-Aug-22 13:33N 49°11' W 123°52'0 0.0
2016-Aug-22 12:30N 49°11' W 123°52'0 0.0
2016-Aug-22 11:18N 49°11' W 123°52'0 0.0
2016-Aug-22 10:30N 49°11' W 123°52'0 0.0
2016-Aug-22 09:27N 49°11' W 123°52'0 0.0
2016-Aug-22 06:24N 49°11' W 123°52'0 0.1
2016-Aug-22 05:33N 49°11' W 123°52'0 0.2
2016-Aug-22 04:33N 49°11' W 123°52'1 0.6
2016-Aug-22 03:33N 49°10' W 123°53'1 1.4
2016-Aug-22 02:33N 49°10' W 123°55'2 1.9
2016-Aug-22 01:34N 49°11' W 123°52'0 0.4
2016-Aug-22 00:33N 49°11' W 123°52'1 1.5
2016-Aug-21 23:33N 49°10' W 123°54'1 1.4
2016-Aug-21 22:33N 49°10' W 123°56'1 0.6
2016-Aug-21 21:34N 49°10' W 123°55'2 1.9
2016-Aug-21 20:34N 49°11' W 123°52'0 0.4
2016-Aug-21 19:28N 49°11' W 123°52'2 2.2
2016-Aug-21 18:34N 49°10' W 123°55'1 0.9
2016-Aug-21 17:33N 49°10' W 123°56'1 1.0
2016-Aug-21 16:33N 49°10' W 123°54'2 1.7
2016-Aug-21 15:33N 49°11' W 123°52'3 2.7
2016-Aug-21 14:34N 49°10' W 123°56'0 0.3
2016-Aug-21 13:33N 49°10' W 123°55'3 2.0
2016-Aug-21 12:14N 49°11' W 123°52'0 0.0
2016-Aug-21 11:19N 49°11' W 123°52'0 0.0
2016-Aug-21 10:28N 49°11' W 123°52'0 0.0
2016-Aug-21 09:19N 49°11' W 123°52'0 0.0
2016-Aug-21 08:29N 49°11' W 123°52'0 0.0
2016-Aug-21 07:28N 49°11' W 123°52'0 0.0
2016-Aug-21 06:33N 49°11' W 123°52'0 0.0
2016-Aug-21 05:33N 49°11' W 123°52'0 0.0
2016-Aug-21 04:33N 49°11' W 123°52'1 0.6
2016-Aug-21 03:33N 49°11' W 123°53'1 0.5
2016-Aug-21 02:33N 49°11' W 123°52'0 0.1
2016-Aug-21 01:31N 49°11' W 123°52'0 0.0
2016-Aug-21 00:32N 49°11' W 123°52'2 2.4
2016-Aug-20 23:33N 49°10' W 123°55'1 0.5
2016-Aug-20 22:33N 49°10' W 123°56'1 1.4
2016-Aug-20 21:33N 49°10' W 123°54'1 1.5
2016-Aug-20 20:33N 49°11' W 123°52'0 0.0
2016-Aug-20 19:33N 49°11' W 123°52'2 2.3
2016-Aug-20 18:33N 49°10' W 123°55'1 0.6
2016-Aug-20 17:33N 49°10' W 123°56'1 0.7
2016-Aug-20 16:33N 49°10' W 123°55'2 2.1
2016-Aug-20 15:33N 49°11' W 123°52'0 0.1
2016-Aug-20 14:24N 49°11' W 123°52'3 3.4
2016-Aug-20 13:33N 49°10' W 123°56'3 1.2
2016-Aug-20 11:12N 49°11' W 123°52'0 0.0
2016-Aug-20 10:27N 49°11' W 123°52'0 0.0
2016-Aug-20 09:24N 49°11' W 123°52'0 0.0
2016-Aug-20 08:30N 49°11' W 123°52'0 0.0
2016-Aug-20 07:24N 49°11' W 123°52'0 0.0
2016-Aug-20 06:22N 49°11' W 123°52'  

Dump ship's entire track history